Troy, Ohio
Current Conditions -  °F | °C
As of 2:56 AM on Wednesday 26 Nov 2014 (Local Time) from KDAY Reporting Station
Overcast Overcast  
Wind Chill: 22°   Ceiling: 1300
Heat Index: 29°   Visibility: 10mi
Dew Point: 25°   Wind: 7mph
Humidity: 85%   Direction: 60°ENE
Pressure: 30.15"   Gusts: NA
Location:  40.04°N, 84.2°W
Report Text: KDAY 260756Z 06006KT 10SM OVC013 M02/M04 A3015 RMK AO2 SLP220 T10171039
Loading
Personal Weather Stations






























Interactive Weather Map New forecast layout! Learn more

10-Day Weather Forecast

Advertisements
Track Severe Weather on mobile